Arbutus, Maryland
Current Conditions -  °F | °C
As of 6:54 PM on Friday 24 Oct 2014 (Local Time) from KBWI Reporting Station
Broken Clouds Broken Clouds  
Wind Chill: 60°   Ceiling: 25000
Heat Index: 60°   Visibility: 10mi
Dew Point: 35°   Wind: 3mph
Humidity: 39%   Direction: 300°WNW
Pressure: 29.9"   Gusts: NA
Location:  39.2187°N, 76.722°W
Report Text: KBWI 242254Z 30003KT 10SM FEW160 BKN250 16/02 A2990 RMK AO2 SLP125 T01560017
Loading
Personal Weather Stations






























Interactive Weather Map New forecast layout! Learn more

10-Day Weather Forecast

Advertisements
Track Severe Weather on mobile